sensor_id;sensor_type;location;lat;lon;timestamp;P1;durP1;ratioP1;P2;durP2;ratioP2
56469;SDS011;42374;51.464;-2.590;2022-08-19T00:00:05;0.65;;;0.50;;
56469;SDS011;42374;51.464;-2.590;2022-08-19T00:02:33;1.05;;;0.17;;
56469;SDS011;42374;51.464;-2.590;2022-08-19T00:04:59;0.47;;;0.20;;
56469;SDS011;42374;51.464;-2.590;2022-08-19T00:07:25;0.65;;;0.10;;
56469;SDS011;42374;51.464;-2.590;2022-08-19T00:09:51;1.38;;;0.30;;
56469;SDS011;42374;51.464;-2.590;2022-08-19T00:12:17;0.22;;;0.10;;
56469;SDS011;42374;51.464;-2.590;2022-08-19T00:14:43;1.48;;;0.40;;
56469;SDS011;42374;51.464;-2.590;2022-08-19T00:17:09;1.63;;;0.40;;
56469;SDS011;42374;51.464;-2.590;2022-08-19T00:19:36;1.15;;;0.50;;
56469;SDS011;42374;51.464;-2.590;2022-08-19T00:22:02;1.02;;;0.30;;
56469;SDS011;42374;51.464;-2.590;2022-08-19T00:24:28;3.53;;;0.40;;
56469;SDS011;42374;51.464;-2.590;2022-08-19T00:26:55;3.83;;;0.60;;
56469;SDS011;42374;51.464;-2.590;2022-08-19T00:29:22;2.03;;;0.40;;
56469;SDS011;42374;51.464;-2.590;2022-08-19T00:31:49;4.35;;;0.50;;
56469;SDS011;42374;51.464;-2.590;2022-08-19T00:34:18;6.72;;;1.10;;
56469;SDS011;42374;51.464;-2.590;2022-08-19T00:36:44;4.10;;;0.60;;
56469;SDS011;42374;51.464;-2.590;2022-08-19T00:39:11;3.53;;;0.40;;
56469;SDS011;42374;51.464;-2.590;2022-08-19T00:41:37;2.78;;;0.50;;
56469;SDS011;42374;51.464;-2.590;2022-08-19T00:44:11;3.15;;;0.50;;
56469;SDS011;42374;51.464;-2.590;2022-08-19T00:46:40;7.07;;;1.05;;
56469;SDS011;42374;51.464;-2.590;2022-08-19T00:49:12;2.70;;;0.60;;
56469;SDS011;42374;51.464;-2.590;2022-08-19T00:51:40;3.60;;;0.50;;
56469;SDS011;42374;51.464;-2.590;2022-08-19T00:54:06;3.63;;;0.55;;
56469;SDS011;42374;51.464;-2.590;2022-08-19T00:56:34;4.18;;;0.63;;
56469;SDS011;42374;51.464;-2.590;2022-08-19T00:59:00;5.78;;;0.70;;
56469;SDS011;42374;51.464;-2.590;2022-08-19T01:01:27;2.38;;;0.50;;
56469;SDS011;42374;51.464;-2.590;2022-08-19T01:03:53;6.50;;;0.60;;
56469;SDS011;42374;51.464;-2.590;2022-08-19T01:06:19;2.72;;;0.43;;
56469;SDS011;42374;51.464;-2.590;2022-08-19T01:08:45;4.03;;;0.60;;
56469;SDS011;42374;51.464;-2.590;2022-08-19T01:11:11;1.17;;;0.30;;
56469;SDS011;42374;51.464;-2.590;2022-08-19T01:13:38;1.45;;;0.43;;
56469;SDS011;42374;51.464;-2.590;2022-08-19T01:16:05;1.05;;;0.20;;
56469;SDS011;42374;51.464;-2.590;2022-08-19T01:18:32;0.93;;;0.30;;
56469;SDS011;42374;51.464;-2.590;2022-08-19T01:21:00;0.80;;;0.30;;
56469;SDS011;42374;51.464;-2.590;2022-08-19T01:23:27;2.65;;;0.28;;
56469;SDS011;42374;51.464;-2.590;2022-08-19T01:26:07;1.35;;;0.30;;
56469;SDS011;42374;51.464;-2.590;2022-08-19T01:28:35;3.85;;;0.40;;
56469;SDS011;42374;51.464;-2.590;2022-08-19T01:31:02;1.27;;;0.30;;
56469;SDS011;42374;51.464;-2.590;2022-08-19T01:33:28;2.13;;;0.40;;
56469;SDS011;42374;51.464;-2.590;2022-08-19T01:36:22;2.10;;;0.40;;
56469;SDS011;42374;51.464;-2.590;2022-08-19T01:38:42;1.77;;;0.40;;
56469;SDS011;42374;51.464;-2.590;2022-08-19T01:41:10;2.35;;;0.40;;
56469;SDS011;42374;51.464;-2.590;2022-08-19T01:43:37;0.73;;;0.40;;
56469;SDS011;42374;51.464;-2.590;2022-08-19T01:46:03;2.80;;;0.50;;
56469;SDS011;42374;51.464;-2.590;2022-08-19T01:48:34;2.85;;;0.70;;
56469;SDS011;42374;51.464;-2.590;2022-08-19T01:51:00;2.50;;;0.80;;
56469;SDS011;42374;51.464;-2.590;2022-08-19T01:53:26;2.40;;;1.13;;
56469;SDS011;42374;51.464;-2.590;2022-08-19T01:55:52;1.50;;;0.77;;
56469;SDS011;42374;51.464;-2.590;2022-08-19T01:58:19;3.40;;;0.60;;
56469;SDS011;42374;51.464;-2.590;2022-08-19T02:00:47;0.95;;;0.50;;
56469;SDS011;42374;51.464;-2.590;2022-08-19T02:03:13;3.72;;;0.63;;
56469;SDS011;42374;51.464;-2.590;2022-08-19T02:05:41;3.75;;;1.30;;
56469;SDS011;42374;51.464;-2.590;2022-08-19T02:08:08;3.28;;;0.70;;
56469;SDS011;42374;51.464;-2.590;2022-08-19T02:10:37;3.80;;;0.90;;
56469;SDS011;42374;51.464;-2.590;2022-08-19T02:13:03;4.70;;;1.00;;
56469;SDS011;42374;51.464;-2.590;2022-08-19T02:15:29;4.53;;;0.90;;
56469;SDS011;42374;51.464;-2.590;2022-08-19T02:17:55;4.20;;;1.67;;
56469;SDS011;42374;51.464;-2.590;2022-08-19T02:20:21;3.08;;;1.00;;
56469;SDS011;42374;51.464;-2.590;2022-08-19T02:22:47;5.50;;;1.05;;
56469;SDS011;42374;51.464;-2.590;2022-08-19T02:25:14;4.68;;;1.20;;
56469;SDS011;42374;51.464;-2.590;2022-08-19T02:27:40;1.83;;;1.10;;
56469;SDS011;42374;51.464;-2.590;2022-08-19T02:30:07;2.80;;;0.93;;
56469;SDS011;42374;51.464;-2.590;2022-08-19T02:32:33;3.05;;;1.20;;
56469;SDS011;42374;51.464;-2.590;2022-08-19T02:35:00;5.13;;;1.30;;
56469;SDS011;42374;51.464;-2.590;2022-08-19T02:37:26;5.47;;;1.00;;
56469;SDS011;42374;51.464;-2.590;2022-08-19T02:40:11;5.53;;;1.10;;
56469;SDS011;42374;51.464;-2.590;2022-08-19T02:42:37;3.95;;;1.13;;
56469;SDS011;42374;51.464;-2.590;2022-08-19T02:45:03;6.60;;;1.20;;
56469;SDS011;42374;51.464;-2.590;2022-08-19T02:47:30;8.30;;;1.10;;
56469;SDS011;42374;51.464;-2.590;2022-08-19T02:49:56;2.95;;;0.90;;
56469;SDS011;42374;51.464;-2.590;2022-08-19T02:52:22;4.20;;;1.00;;
56469;SDS011;42374;51.464;-2.590;2022-08-19T02:54:48;6.45;;;1.17;;
56469;SDS011;42374;51.464;-2.590;2022-08-19T02:57:14;6.45;;;1.20;;
56469;SDS011;42374;51.464;-2.590;2022-08-19T02:59:40;6.28;;;1.17;;
56469;SDS011;42374;51.464;-2.590;2022-08-19T03:02:06;6.57;;;1.20;;
56469;SDS011;42374;51.464;-2.590;2022-08-19T03:04:32;4.47;;;1.13;;
56469;SDS011;42374;51.464;-2.590;2022-08-19T03:06:59;8.77;;;1.30;;
56469;SDS011;42374;51.464;-2.590;2022-08-19T03:09:25;6.30;;;1.33;;
56469;SDS011;42374;51.464;-2.590;2022-08-19T03:11:51;7.22;;;1.20;;
56469;SDS011;42374;51.464;-2.590;2022-08-19T03:14:17;3.13;;;1.05;;
56469;SDS011;42374;51.464;-2.590;2022-08-19T03:16:45;3.88;;;1.23;;
56469;SDS011;42374;51.464;-2.590;2022-08-19T03:19:13;4.30;;;1.10;;
56469;SDS011;42374;51.464;-2.590;2022-08-19T03:21:39;9.63;;;1.20;;
56469;SDS011;42374;51.464;-2.590;2022-08-19T03:24:06;15.77;;;2.13;;
56469;SDS011;42374;51.464;-2.590;2022-08-19T03:26:33;4.93;;;1.10;;
56469;SDS011;42374;51.464;-2.590;2022-08-19T03:29:01;7.75;;;1.40;;
56469;SDS011;42374;51.464;-2.590;2022-08-19T03:31:27;7.32;;;1.08;;
56469;SDS011;42374;51.464;-2.590;2022-08-19T03:33:53;4.80;;;1.10;;
56469;SDS011;42374;51.464;-2.590;2022-08-19T03:36:21;8.48;;;1.33;;
56469;SDS011;42374;51.464;-2.590;2022-08-19T03:38:53;13.00;;;2.15;;
56469;SDS011;42374;51.464;-2.590;2022-08-19T03:41:21;10.23;;;1.35;;
56469;SDS011;42374;51.464;-2.590;2022-08-19T03:43:47;12.88;;;1.50;;
56469;SDS011;42374;51.464;-2.590;2022-08-19T03:46:15;8.80;;;2.10;;
56469;SDS011;42374;51.464;-2.590;2022-08-19T03:48:42;10.70;;;1.50;;
56469;SDS011;42374;51.464;-2.590;2022-08-19T03:51:26;12.98;;;3.45;;
56469;SDS011;42374;51.464;-2.590;2022-08-19T03:53:53;15.07;;;1.58;;
56469;SDS011;42374;51.464;-2.590;2022-08-19T03:56:19;11.00;;;1.45;;
56469;SDS011;42374;51.464;-2.590;2022-08-19T03:58:45;11.18;;;1.35;;
56469;SDS011;42374;51.464;-2.590;2022-08-19T04:01:13;12.75;;;1.65;;
56469;SDS011;42374;51.464;-2.590;2022-08-19T04:03:39;8.40;;;2.42;;
56469;SDS011;42374;51.464;-2.590;2022-08-19T04:08:50;10.52;;;1.85;;
56469;SDS011;42374;51.464;-2.590;2022-08-19T04:11:20;14.13;;;1.80;;
56469;SDS011;42374;51.464;-2.590;2022-08-19T04:13:46;15.73;;;2.65;;
56469;SDS011;42374;51.464;-2.590;2022-08-19T04:16:13;10.48;;;1.80;;
56469;SDS011;42374;51.464;-2.590;2022-08-19T04:18:39;15.20;;;2.28;;
56469;SDS011;42374;51.464;-2.590;2022-08-19T04:21:06;12.93;;;1.77;;
56469;SDS011;42374;51.464;-2.590;2022-08-19T04:23:33;10.52;;;1.73;;
56469;SDS011;42374;51.464;-2.590;2022-08-19T04:26:01;11.27;;;2.15;;
56469;SDS011;42374;51.464;-2.590;2022-08-19T04:28:27;9.90;;;1.95;;
56469;SDS011;42374;51.464;-2.590;2022-08-19T04:30:54;11.98;;;2.05;;
56469;SDS011;42374;51.464;-2.590;2022-08-19T04:33:21;15.77;;;2.78;;
56469;SDS011;42374;51.464;-2.590;2022-08-19T04:35:50;17.60;;;2.95;;
56469;SDS011;42374;51.464;-2.590;2022-08-19T04:38:18;12.85;;;2.05;;
56469;SDS011;42374;51.464;-2.590;2022-08-19T04:40:45;15.68;;;2.15;;
56469;SDS011;42374;51.464;-2.590;2022-08-19T04:43:30;17.88;;;2.05;;
56469;SDS011;42374;51.464;-2.590;2022-08-19T04:45:57;13.52;;;2.13;;
56469;SDS011;42374;51.464;-2.590;2022-08-19T04:48:23;15.38;;;2.22;;
56469;SDS011;42374;51.464;-2.590;2022-08-19T04:50:53;11.50;;;2.22;;
56469;SDS011;42374;51.464;-2.590;2022-08-19T04:53:23;17.33;;;2.55;;
56469;SDS011;42374;51.464;-2.590;2022-08-19T04:55:49;9.95;;;2.35;;
56469;SDS011;42374;51.464;-2.590;2022-08-19T04:58:16;21.20;;;2.75;;
56469;SDS011;42374;51.464;-2.590;2022-08-19T05:00:42;12.38;;;2.33;;
56469;SDS011;42374;51.464;-2.590;2022-08-19T05:03:08;13.45;;;2.30;;
56469;SDS011;42374;51.464;-2.590;2022-08-19T05:05:45;13.27;;;2.72;;
56469;SDS011;42374;51.464;-2.590;2022-08-19T05:08:13;11.48;;;2.90;;
56469;SDS011;42374;51.464;-2.590;2022-08-19T05:10:44;14.95;;;2.47;;
56469;SDS011;42374;51.464;-2.590;2022-08-19T05:13:10;11.45;;;2.25;;
56469;SDS011;42374;51.464;-2.590;2022-08-19T05:15:36;12.25;;;2.55;;
56469;SDS011;42374;51.464;-2.590;2022-08-19T05:18:02;13.65;;;3.03;;
56469;SDS011;42374;51.464;-2.590;2022-08-19T05:20:47;15.00;;;2.20;;
56469;SDS011;42374;51.464;-2.590;2022-08-19T05:23:31;13.80;;;2.67;;
56469;SDS011;42374;51.464;-2.590;2022-08-19T05:25:57;16.70;;;2.75;;
56469;SDS011;42374;51.464;-2.590;2022-08-19T05:28:23;14.48;;;2.80;;
56469;SDS011;42374;51.464;-2.590;2022-08-19T05:30:49;7.45;;;2.05;;
56469;SDS011;42374;51.464;-2.590;2022-08-19T05:33:16;13.88;;;2.20;;
56469;SDS011;42374;51.464;-2.590;2022-08-19T05:35:42;18.90;;;2.60;;
56469;SDS011;42374;51.464;-2.590;2022-08-19T05:38:09;15.07;;;2.50;;
56469;SDS011;42374;51.464;-2.590;2022-08-19T05:40:36;11.75;;;2.38;;
56469;SDS011;42374;51.464;-2.590;2022-08-19T05:43:03;11.25;;;2.67;;
56469;SDS011;42374;51.464;-2.590;2022-08-19T05:45:29;12.55;;;2.00;;
56469;SDS011;42374;51.464;-2.590;2022-08-19T05:47:55;14.65;;;2.00;;
56469;SDS011;42374;51.464;-2.590;2022-08-19T05:50:21;14.82;;;2.15;;
56469;SDS011;42374;51.464;-2.590;2022-08-19T05:52:47;5.60;;;1.83;;
56469;SDS011;42374;51.464;-2.590;2022-08-19T05:55:13;14.60;;;2.10;;
56469;SDS011;42374;51.464;-2.590;2022-08-19T05:57:40;10.68;;;1.92;;
56469;SDS011;42374;51.464;-2.590;2022-08-19T06:00:06;9.75;;;2.58;;
56469;SDS011;42374;51.464;-2.590;2022-08-19T06:02:36;11.02;;;2.20;;
56469;SDS011;42374;51.464;-2.590;2022-08-19T06:05:03;12.70;;;2.17;;
56469;SDS011;42374;51.464;-2.590;2022-08-19T06:07:31;6.65;;;1.50;;
56469;SDS011;42374;51.464;-2.590;2022-08-19T06:09:57;11.32;;;1.90;;
56469;SDS011;42374;51.464;-2.590;2022-08-19T06:12:23;9.40;;;2.10;;
56469;SDS011;42374;51.464;-2.590;2022-08-19T06:14:53;10.98;;;1.85;;
56469;SDS011;42374;51.464;-2.590;2022-08-19T06:17:21;7.40;;;1.50;;
56469;SDS011;42374;51.464;-2.590;2022-08-19T06:19:50;13.77;;;1.80;;
56469;SDS011;42374;51.464;-2.590;2022-08-19T06:22:16;11.43;;;1.63;;
56469;SDS011;42374;51.464;-2.590;2022-08-19T06:24:42;10.70;;;1.45;;
56469;SDS011;42374;51.464;-2.590;2022-08-19T06:27:08;10.65;;;1.40;;
56469;SDS011;42374;51.464;-2.590;2022-08-19T06:29:35;10.23;;;1.48;;
56469;SDS011;42374;51.464;-2.590;2022-08-19T06:32:01;10.75;;;1.48;;
56469;SDS011;42374;51.464;-2.590;2022-08-19T06:34:30;10.93;;;1.40;;
56469;SDS011;42374;51.464;-2.590;2022-08-19T06:36:56;8.38;;;1.27;;
56469;SDS011;42374;51.464;-2.590;2022-08-19T06:39:26;7.38;;;1.55;;
56469;SDS011;42374;51.464;-2.590;2022-08-19T06:41:54;10.57;;;1.50;;
56469;SDS011;42374;51.464;-2.590;2022-08-19T06:44:22;11.65;;;1.60;;
56469;SDS011;42374;51.464;-2.590;2022-08-19T06:46:49;15.40;;;2.45;;
56469;SDS011;42374;51.464;-2.590;2022-08-19T06:49:16;3.45;;;1.00;;
56469;SDS011;42374;51.464;-2.590;2022-08-19T06:51:42;6.45;;;1.33;;
56469;SDS011;42374;51.464;-2.590;2022-08-19T06:54:09;7.00;;;1.10;;
56469;SDS011;42374;51.464;-2.590;2022-08-19T06:56:37;8.55;;;1.30;;
56469;SDS011;42374;51.464;-2.590;2022-08-19T06:59:04;8.05;;;1.30;;
56469;SDS011;42374;51.464;-2.590;2022-08-19T07:01:33;4.57;;;1.60;;
56469;SDS011;42374;51.464;-2.590;2022-08-19T07:03:59;6.70;;;1.30;;
56469;SDS011;42374;51.464;-2.590;2022-08-19T07:06:27;7.75;;;1.20;;
56469;SDS011;42374;51.464;-2.590;2022-08-19T07:08:56;5.03;;;1.00;;
56469;SDS011;42374;51.464;-2.590;2022-08-19T07:11:23;6.32;;;1.98;;
56469;SDS011;42374;51.464;-2.590;2022-08-19T07:13:49;12.65;;;1.10;;
56469;SDS011;42374;51.464;-2.590;2022-08-19T07:16:17;8.35;;;1.00;;
56469;SDS011;42374;51.464;-2.590;2022-08-19T07:18:44;8.63;;;1.20;;
56469;SDS011;42374;51.464;-2.590;2022-08-19T07:21:15;12.13;;;1.25;;
56469;SDS011;42374;51.464;-2.590;2022-08-19T07:23:42;7.65;;;1.10;;
56469;SDS011;42374;51.464;-2.590;2022-08-19T07:26:22;11.55;;;1.35;;
56469;SDS011;42374;51.464;-2.590;2022-08-19T07:28:48;8.00;;;2.00;;
56469;SDS011;42374;51.464;-2.590;2022-08-19T07:31:16;12.48;;;1.15;;
56469;SDS011;42374;51.464;-2.590;2022-08-19T07:33:46;11.48;;;1.30;;
56469;SDS011;42374;51.464;-2.590;2022-08-19T07:36:13;12.30;;;1.10;;
56469;SDS011;42374;51.464;-2.590;2022-08-19T07:38:40;10.13;;;2.17;;
56469;SDS011;42374;51.464;-2.590;2022-08-19T07:41:07;13.88;;;1.35;;
56469;SDS011;42374;51.464;-2.590;2022-08-19T07:43:34;9.10;;;1.20;;
56469;SDS011;42374;51.464;-2.590;2022-08-19T07:46:02;8.32;;;1.73;;
56469;SDS011;42374;51.464;-2.590;2022-08-19T07:48:28;8.00;;;1.23;;
56469;SDS011;42374;51.464;-2.590;2022-08-19T07:50:55;15.48;;;1.33;;
56469;SDS011;42374;51.464;-2.590;2022-08-19T07:53:22;6.07;;;1.10;;
56469;SDS011;42374;51.464;-2.590;2022-08-19T07:55:48;12.73;;;1.42;;
56469;SDS011;42374;51.464;-2.590;2022-08-19T07:58:16;10.30;;;1.60;;
56469;SDS011;42374;51.464;-2.590;2022-08-19T08:00:43;6.95;;;1.45;;
56469;SDS011;42374;51.464;-2.590;2022-08-19T08:03:09;8.38;;;1.13;;
56469;SDS011;42374;51.464;-2.590;2022-08-19T08:05:36;11.00;;;1.55;;
56469;SDS011;42374;51.464;-2.590;2022-08-19T08:08:20;7.38;;;1.05;;
56469;SDS011;42374;51.464;-2.590;2022-08-19T08:11:05;13.98;;;1.10;;
56469;SDS011;42374;51.464;-2.590;2022-08-19T08:13:31;13.30;;;1.60;;
56469;SDS011;42374;51.464;-2.590;2022-08-19T08:16:00;6.93;;;1.17;;
56469;SDS011;42374;51.464;-2.590;2022-08-19T08:18:26;7.80;;;1.80;;
56469;SDS011;42374;51.464;-2.590;2022-08-19T08:20:53;9.57;;;1.50;;
56469;SDS011;42374;51.464;-2.590;2022-08-19T08:23:19;8.15;;;1.30;;
56469;SDS011;42374;51.464;-2.590;2022-08-19T08:25:50;14.30;;;2.00;;
56469;SDS011;42374;51.464;-2.590;2022-08-19T08:28:17;15.70;;;4.70;;
56469;SDS011;42374;51.464;-2.590;2022-08-19T08:30:45;61.83;;;5.50;;
56469;SDS011;42374;51.464;-2.590;2022-08-19T08:33:12;19.02;;;2.03;;
56469;SDS011;42374;51.464;-2.590;2022-08-19T08:35:40;14.73;;;1.73;;
56469;SDS011;42374;51.464;-2.590;2022-08-19T08:38:07;11.38;;;2.50;;
56469;SDS011;42374;51.464;-2.590;2022-08-19T08:43:07;7.40;;;1.58;;
56469;SDS011;42374;51.464;-2.590;2022-08-19T08:45:35;15.80;;;1.58;;
56469;SDS011;42374;51.464;-2.590;2022-08-19T08:48:07;8.40;;;1.42;;
56469;SDS011;42374;51.464;-2.590;2022-08-19T08:50:37;12.77;;;1.40;;
56469;SDS011;42374;51.464;-2.590;2022-08-19T08:53:05;12.05;;;2.13;;
56469;SDS011;42374;51.464;-2.590;2022-08-19T08:55:33;8.80;;;1.40;;
56469;SDS011;42374;51.464;-2.590;2022-08-19T08:58:03;11.00;;;1.40;;
56469;SDS011;42374;51.464;-2.590;2022-08-19T09:00:34;12.40;;;1.77;;
56469;SDS011;42374;51.464;-2.590;2022-08-19T09:03:03;45.58;;;5.05;;
56469;SDS011;42374;51.464;-2.590;2022-08-19T09:05:41;12.05;;;1.90;;
56469;SDS011;42374;51.464;-2.590;2022-08-19T09:08:13;18.73;;;3.50;;
56469;SDS011;42374;51.464;-2.590;2022-08-19T09:10:45;13.73;;;1.85;;
56469;SDS011;42374;51.464;-2.590;2022-08-19T09:13:31;7.20;;;1.70;;
56469;SDS011;42374;51.464;-2.590;2022-08-19T09:16:02;9.43;;;1.35;;
56469;SDS011;42374;51.464;-2.590;2022-08-19T09:18:45;7.28;;;1.10;;
56469;SDS011;42374;51.464;-2.590;2022-08-19T09:21:18;10.05;;;1.52;;
56469;SDS011;42374;51.464;-2.590;2022-08-19T09:23:45;5.20;;;1.17;;
56469;SDS011;42374;51.464;-2.590;2022-08-19T09:26:12;6.13;;;1.00;;
56469;SDS011;42374;51.464;-2.590;2022-08-19T09:28:42;8.52;;;1.20;;
56469;SDS011;42374;51.464;-2.590;2022-08-19T09:31:12;5.35;;;0.98;;
56469;SDS011;42374;51.464;-2.590;2022-08-19T09:33:40;9.43;;;1.40;;
56469;SDS011;42374;51.464;-2.590;2022-08-19T09:36:09;4.25;;;1.00;;
56469;SDS011;42374;51.464;-2.590;2022-08-19T09:38:37;4.65;;;1.00;;
56469;SDS011;42374;51.464;-2.590;2022-08-19T09:41:07;8.30;;;1.15;;
56469;SDS011;42374;51.464;-2.590;2022-08-19T09:43:34;7.43;;;1.25;;
56469;SDS011;42374;51.464;-2.590;2022-08-19T09:46:01;10.95;;;1.17;;
56469;SDS011;42374;51.464;-2.590;2022-08-19T09:48:30;9.00;;;2.00;;
56469;SDS011;42374;51.464;-2.590;2022-08-19T09:51:30;12.90;;;2.25;;
56469;SDS011;42374;51.464;-2.590;2022-08-19T09:53:50;6.47;;;1.10;;
56469;SDS011;42374;51.464;-2.590;2022-08-19T09:56:18;11.00;;;1.65;;
56469;SDS011;42374;51.464;-2.590;2022-08-19T09:58:45;8.38;;;1.30;;
56469;SDS011;42374;51.464;-2.590;2022-08-19T10:01:26;6.75;;;1.05;;
56469;SDS011;42374;51.464;-2.590;2022-08-19T10:03:53;10.02;;;1.15;;
56469;SDS011;42374;51.464;-2.590;2022-08-19T10:06:20;6.45;;;1.08;;
56469;SDS011;42374;51.464;-2.590;2022-08-19T10:08:47;12.40;;;1.52;;
56469;SDS011;42374;51.464;-2.590;2022-08-19T10:11:13;11.93;;;1.20;;
56469;SDS011;42374;51.464;-2.590;2022-08-19T10:13:41;12.05;;;1.50;;
56469;SDS011;42374;51.464;-2.590;2022-08-19T10:16:10;10.95;;;1.35;;
56469;SDS011;42374;51.464;-2.590;2022-08-19T10:18:36;7.50;;;1.13;;
56469;SDS011;42374;51.464;-2.590;2022-08-19T10:21:05;14.02;;;1.60;;
56469;SDS011;42374;51.464;-2.590;2022-08-19T10:23:33;11.57;;;1.73;;
56469;SDS011;42374;51.464;-2.590;2022-08-19T10:26:00;14.90;;;1.40;;
56469;SDS011;42374;51.464;-2.590;2022-08-19T10:28:26;8.70;;;1.30;;
56469;SDS011;42374;51.464;-2.590;2022-08-19T10:30:52;7.25;;;1.35;;
56469;SDS011;42374;51.464;-2.590;2022-08-19T10:33:18;9.07;;;1.48;;
56469;SDS011;42374;51.464;-2.590;2022-08-19T10:35:44;9.57;;;1.10;;
56469;SDS011;42374;51.464;-2.590;2022-08-19T10:38:11;11.60;;;1.20;;
56469;SDS011;42374;51.464;-2.590;2022-08-19T10:40:37;14.95;;;1.58;;
56469;SDS011;42374;51.464;-2.590;2022-08-19T10:43:03;6.47;;;1.40;;
56469;SDS011;42374;51.464;-2.590;2022-08-19T10:45:30;10.75;;;1.52;;
56469;SDS011;42374;51.464;-2.590;2022-08-19T10:47:56;12.00;;;2.30;;
56469;SDS011;42374;51.464;-2.590;2022-08-19T10:50:22;5.82;;;1.15;;
56469;SDS011;42374;51.464;-2.590;2022-08-19T10:53:07;6.78;;;1.30;;
56469;SDS011;42374;51.464;-2.590;2022-08-19T10:55:34;9.68;;;1.30;;
56469;SDS011;42374;51.464;-2.590;2022-08-19T10:58:19;11.65;;;1.50;;
56469;SDS011;42374;51.464;-2.590;2022-08-19T11:01:05;9.10;;;1.80;;
56469;SDS011;42374;51.464;-2.590;2022-08-19T11:03:31;6.07;;;1.20;;
56469;SDS011;42374;51.464;-2.590;2022-08-19T11:06:01;9.10;;;1.20;;
56469;SDS011;42374;51.464;-2.590;2022-08-19T11:08:27;8.07;;;1.30;;
56469;SDS011;42374;51.464;-2.590;2022-08-19T11:10:55;7.72;;;1.55;;
56469;SDS011;42374;51.464;-2.590;2022-08-19T11:13:29;12.18;;;1.50;;
56469;SDS011;42374;51.464;-2.590;2022-08-19T11:16:00;10.57;;;1.60;;
56469;SDS011;42374;51.464;-2.590;2022-08-19T11:18:27;10.77;;;1.35;;
56469;SDS011;42374;51.464;-2.590;2022-08-19T11:20:53;6.10;;;1.42;;
56469;SDS011;42374;51.464;-2.590;2022-08-19T11:23:19;18.55;;;1.50;;
56469;SDS011;42374;51.464;-2.590;2022-08-19T11:25:45;8.68;;;1.25;;
56469;SDS011;42374;51.464;-2.590;2022-08-19T11:28:12;5.43;;;1.30;;
56469;SDS011;42374;51.464;-2.590;2022-08-19T11:30:39;6.30;;;1.20;;
56469;SDS011;42374;51.464;-2.590;2022-08-19T11:33:05;9.25;;;1.17;;
56469;SDS011;42374;51.464;-2.590;2022-08-19T11:35:31;8.23;;;1.42;;
56469;SDS011;42374;51.464;-2.590;2022-08-19T11:37:58;10.32;;;1.38;;
56469;SDS011;42374;51.464;-2.590;2022-08-19T11:40:25;9.25;;;1.17;;
56469;SDS011;42374;51.464;-2.590;2022-08-19T11:42:51;10.27;;;1.73;;
56469;SDS011;42374;51.464;-2.590;2022-08-19T11:45:20;8.27;;;1.15;;
56469;SDS011;42374;51.464;-2.590;2022-08-19T11:47:46;9.75;;;1.10;;
56469;SDS011;42374;51.464;-2.590;2022-08-19T11:50:13;5.70;;;0.98;;
56469;SDS011;42374;51.464;-2.590;2022-08-19T11:52:39;8.50;;;1.38;;
56469;SDS011;42374;51.464;-2.590;2022-08-19T11:55:06;9.98;;;1.42;;
56469;SDS011;42374;51.464;-2.590;2022-08-19T11:57:32;10.68;;;1.25;;
56469;SDS011;42374;51.464;-2.590;2022-08-19T11:59:58;14.00;;;1.80;;
56469;SDS011;42374;51.464;-2.590;2022-08-19T12:02:24;9.32;;;1.35;;
56469;SDS011;42374;51.464;-2.590;2022-08-19T12:04:50;12.85;;;1.20;;
56469;SDS011;42374;51.464;-2.590;2022-08-19T12:07:16;12.95;;;1.35;;
56469;SDS011;42374;51.464;-2.590;2022-08-19T12:09:42;10.27;;;2.00;;
56469;SDS011;42374;51.464;-2.590;2022-08-19T12:12:09;6.60;;;1.20;;
56469;SDS011;42374;51.464;-2.590;2022-08-19T12:14:35;19.08;;;1.42;;
56469;SDS011;42374;51.464;-2.590;2022-08-19T12:17:01;5.05;;;1.20;;
56469;SDS011;42374;51.464;-2.590;2022-08-19T12:19:29;14.23;;;1.63;;
56469;SDS011;42374;51.464;-2.590;2022-08-19T12:21:58;12.07;;;1.42;;
56469;SDS011;42374;51.464;-2.590;2022-08-19T12:24:26;5.93;;;1.13;;
56469;SDS011;42374;51.464;-2.590;2022-08-19T12:26:52;9.52;;;1.13;;
56469;SDS011;42374;51.464;-2.590;2022-08-19T12:29:21;11.85;;;1.48;;
56469;SDS011;42374;51.464;-2.590;2022-08-19T12:31:54;6.13;;;1.40;;
56469;SDS011;42374;51.464;-2.590;2022-08-19T12:34:25;6.93;;;1.23;;
56469;SDS011;42374;51.464;-2.590;2022-08-19T12:36:54;9.38;;;1.40;;
56469;SDS011;42374;51.464;-2.590;2022-08-19T12:39:20;9.70;;;1.40;;
56469;SDS011;42374;51.464;-2.590;2022-08-19T12:41:47;10.27;;;1.48;;
56469;SDS011;42374;51.464;-2.590;2022-08-19T12:44:14;6.22;;;1.10;;
56469;SDS011;42374;51.464;-2.590;2022-08-19T12:46:43;5.13;;;1.08;;
56469;SDS011;42374;51.464;-2.590;2022-08-19T12:49:09;7.75;;;1.48;;
56469;SDS011;42374;51.464;-2.590;2022-08-19T12:51:35;6.53;;;0.70;;
56469;SDS011;42374;51.464;-2.590;2022-08-19T12:54:01;7.05;;;0.90;;
56469;SDS011;42374;51.464;-2.590;2022-08-19T12:56:29;8.20;;;1.10;;
56469;SDS011;42374;51.464;-2.590;2022-08-19T12:58:56;7.68;;;1.20;;
56469;SDS011;42374;51.464;-2.590;2022-08-19T13:01:22;5.13;;;1.00;;
56469;SDS011;42374;51.464;-2.590;2022-08-19T13:03:48;8.57;;;1.25;;
56469;SDS011;42374;51.464;-2.590;2022-08-19T13:06:14;6.15;;;1.17;;
56469;SDS011;42374;51.464;-2.590;2022-08-19T13:08:40;6.00;;;1.08;;
56469;SDS011;42374;51.464;-2.590;2022-08-19T13:11:08;9.80;;;1.40;;
56469;SDS011;42374;51.464;-2.590;2022-08-19T13:13:35;10.98;;;1.38;;
56469;SDS011;42374;51.464;-2.590;2022-08-19T13:16:01;9.27;;;1.08;;
56469;SDS011;42374;51.464;-2.590;2022-08-19T13:18:28;7.45;;;1.35;;
56469;SDS011;42374;51.464;-2.590;2022-08-19T13:20:54;12.98;;;1.10;;
56469;SDS011;42374;51.464;-2.590;2022-08-19T13:23:21;7.30;;;1.13;;
56469;SDS011;42374;51.464;-2.590;2022-08-19T13:25:55;10.68;;;1.40;;
56469;SDS011;42374;51.464;-2.590;2022-08-19T13:28:21;5.85;;;0.95;;
56469;SDS011;42374;51.464;-2.590;2022-08-19T13:30:47;7.72;;;1.00;;
56469;SDS011;42374;51.464;-2.590;2022-08-19T13:33:32;6.63;;;1.15;;
56469;SDS011;42374;51.464;-2.590;2022-08-19T13:35:59;4.80;;;1.00;;
56469;SDS011;42374;51.464;-2.590;2022-08-19T13:38:26;5.47;;;0.88;;
56469;SDS011;42374;51.464;-2.590;2022-08-19T13:40:53;7.03;;;1.10;;
56469;SDS011;42374;51.464;-2.590;2022-08-19T13:43:20;5.20;;;0.98;;
56469;SDS011;42374;51.464;-2.590;2022-08-19T13:45:47;7.32;;;1.15;;
56469;SDS011;42374;51.464;-2.590;2022-08-19T13:48:13;7.57;;;0.90;;
56469;SDS011;42374;51.464;-2.590;2022-08-19T13:50:41;5.55;;;1.10;;
56469;SDS011;42374;51.464;-2.590;2022-08-19T13:53:11;7.60;;;1.15;;
56469;SDS011;42374;51.464;-2.590;2022-08-19T13:55:38;3.83;;;0.70;;
56469;SDS011;42374;51.464;-2.590;2022-08-19T13:58:04;4.82;;;0.70;;
56469;SDS011;42374;51.464;-2.590;2022-08-19T14:00:32;1.92;;;0.50;;
56469;SDS011;42374;51.464;-2.590;2022-08-19T14:02:59;4.15;;;0.80;;
56469;SDS011;42374;51.464;-2.590;2022-08-19T14:05:26;5.88;;;0.70;;
56469;SDS011;42374;51.464;-2.590;2022-08-19T14:07:53;2.88;;;0.63;;
56469;SDS011;42374;51.464;-2.590;2022-08-19T14:10:19;3.80;;;0.93;;
56469;SDS011;42374;51.464;-2.590;2022-08-19T14:12:46;7.43;;;1.02;;
56469;SDS011;42374;51.464;-2.590;2022-08-19T14:15:14;3.60;;;0.80;;
56469;SDS011;42374;51.464;-2.590;2022-08-19T14:17:41;4.63;;;0.73;;
56469;SDS011;42374;51.464;-2.590;2022-08-19T14:20:08;4.07;;;0.55;;
56469;SDS011;42374;51.464;-2.590;2022-08-19T14:22:35;5.97;;;0.77;;
56469;SDS011;42374;51.464;-2.590;2022-08-19T14:25:02;5.03;;;0.70;;
56469;SDS011;42374;51.464;-2.590;2022-08-19T14:27:28;4.90;;;0.80;;
56469;SDS011;42374;51.464;-2.590;2022-08-19T14:29:54;4.65;;;0.60;;
56469;SDS011;42374;51.464;-2.590;2022-08-19T14:32:20;9.60;;;1.02;;
56469;SDS011;42374;51.464;-2.590;2022-08-19T14:34:46;4.70;;;0.60;;
56469;SDS011;42374;51.464;-2.590;2022-08-19T14:37:13;5.38;;;0.70;;
56469;SDS011;42374;51.464;-2.590;2022-08-19T14:39:42;4.13;;;0.85;;